Time,TemperatureF,DewpointF,PressureIn,WindDirection,WindDirectionDegrees,WindSpeedMPH,WindSpeedGustMPH,Humidity,HourlyPrecipIn,Conditions,Clouds,dailyrainin,SolarRadiationWatts/m^2,SoftwareType,DateUTC
2013-07-27 00:02:00,57.0,54.0,-100.00,SSW,211,1.0,5.0,91,0.00,,,0.34,4.000000,,2013-07-27 08:02:00,
2013-07-27 00:12:00,57.0,54.0,-100.00,SSW,211,1.0,5.0,91,0.00,,,0.34,4.000000,,2013-07-27 08:12:00,
2013-07-27 00:21:00,57.0,54.0,-100.00,SSW,211,1.0,5.0,91,0.00,,,0.34,4.000000,,2013-07-27 08:21:00,
2013-07-27 00:53:00,55.0,53.0,-100.00,SSE,160,0.0,2.0,94,0.00,,,0.33,0.000000,,2013-07-27 08:53:00,
2013-07-27 01:02:00,55.0,53.0,-100.00,SSE,160,0.0,2.0,94,0.00,,,0.33,0.000000,,2013-07-27 09:02:00,
2013-07-27 01:11:00,55.0,53.0,-100.00,SSE,160,0.0,2.0,94,0.00,,,0.33,0.000000,,2013-07-27 09:11:00,
2013-07-27 01:22:00,55.0,53.0,-100.00,SSE,160,0.0,2.0,94,0.00,,,0.33,0.000000,,2013-07-27 09:22:00,
2013-07-27 01:52:00,53.0,52.0,-100.00,NNE,12,0.0,2.0,96,0.00,,,0.04,0.000000,,2013-07-27 09:52:00,
2013-07-27 02:02:00,53.0,52.0,-100.00,NNE,12,0.0,2.0,96,0.00,,,0.04,0.000000,,2013-07-27 10:02:00,
2013-07-27 02:12:00,53.0,52.0,-100.00,NNE,12,0.0,2.0,96,0.00,,,0.04,0.000000,,2013-07-27 10:12:00,
2013-07-27 02:22:00,53.0,52.0,-100.00,NNE,12,0.0,2.0,96,0.00,,,0.04,0.000000,,2013-07-27 10:22:00,
2013-07-27 02:52:00,53.0,52.0,-100.00,NNE,17,0.0,2.0,97,0.00,,,0.00,0.000000,,2013-07-27 10:52:00,
2013-07-27 03:02:00,53.0,52.0,-100.00,NNE,17,0.0,2.0,97,0.00,,,0.00,0.000000,,2013-07-27 11:02:00,
2013-07-27 03:12:00,53.0,52.0,-100.00,NNE,17,0.0,2.0,97,0.00,,,0.00,0.000000,,2013-07-27 11:12:00,
2013-07-27 03:22:00,53.0,52.0,-100.00,NNE,17,0.0,2.0,97,0.00,,,0.00,0.000000,,2013-07-27 11:22:00,
2013-07-27 03:53:00,51.0,50.0,-100.00,NNE,18,0.0,1.0,97,0.00,,,0.00,0.000000,,2013-07-27 11:53:00,
2013-07-27 04:02:00,51.0,50.0,-100.00,NNE,18,0.0,1.0,97,0.00,,,0.00,0.000000,,2013-07-27 12:02:00,
2013-07-27 04:12:00,51.0,50.0,-100.00,NNE,18,0.0,1.0,97,0.00,,,0.00,0.000000,,2013-07-27 12:12:00,
2013-07-27 04:22:00,51.0,50.0,-100.00,NNE,18,0.0,1.0,97,0.00,,,0.00,0.000000,,2013-07-27 12:22:00,
2013-07-27 04:52:00,50.0,49.0,-100.00,NNE,12,0.0,1.0,97,0.00,,,0.00,0.000000,,2013-07-27 12:52:00,
2013-07-27 05:02:00,50.0,49.0,-100.00,NNE,12,0.0,1.0,97,0.00,,,0.00,0.000000,,2013-07-27 13:02:00,
2013-07-27 05:12:00,50.0,49.0,-100.00,NNE,12,0.0,1.0,97,0.00,,,0.00,0.000000,,2013-07-27 13:12:00,
2013-07-27 05:22:00,50.0,49.0,-100.00,NNE,12,0.0,1.0,97,0.00,,,0.00,0.000000,,2013-07-27 13:22:00,
2013-07-27 05:53:00,49.0,48.0,-100.00,NNE,33,1.0,2.0,98,0.00,,,0.00,1.000000,,2013-07-27 13:53:00,
2013-07-27 06:02:00,49.0,48.0,-100.00,NNE,33,1.0,2.0,98,0.00,,,0.00,1.000000,,2013-07-27 14:02:00,
2013-07-27 06:12:00,49.0,48.0,-100.00,NNE,33,1.0,2.0,98,0.00,,,0.00,1.000000,,2013-07-27 14:12:00,
2013-07-27 06:22:00,49.0,48.0,-100.00,NNE,33,1.0,2.0,98,0.00,,,0.00,1.000000,,2013-07-27 14:22:00,
2013-07-27 06:54:00,49.0,48.0,-100.00,North,8,0.0,2.0,97,0.00,,,0.00,10.000000,,2013-07-27 14:54:00,
2013-07-27 07:02:00,49.0,48.0,-100.00,North,8,0.0,2.0,97,0.00,,,0.00,10.000000,,2013-07-27 15:02:00,
2013-07-27 07:12:00,49.0,48.0,-100.00,North,8,0.0,2.0,97,0.00,,,0.00,10.000000,,2013-07-27 15:12:00,
2013-07-27 07:22:00,49.0,48.0,-100.00,North,8,0.0,2.0,97,0.00,,,0.00,10.000000,,2013-07-27 15:22:00,
2013-07-27 07:53:00,50.0,49.0,-100.00,WSW,255,0.0,2.0,97,0.00,,,0.00,37.000000,,2013-07-27 15:53:00,
2013-07-27 08:02:00,50.0,49.0,-100.00,WSW,255,0.0,2.0,97,0.00,,,0.00,37.000000,,2013-07-27 16:02:00,
2013-07-27 08:12:00,50.0,49.0,-100.00,WSW,255,0.0,2.0,97,0.00,,,0.00,37.000000,,2013-07-27 16:12:00,
2013-07-27 08:22:00,50.0,49.0,-100.00,WSW,255,0.0,2.0,97,0.00,,,0.00,37.000000,,2013-07-27 16:22:00,
2013-07-27 08:54:00,55.0,54.0,-100.00,SSW,197,0.0,2.0,96,0.00,,,0.00,117.000000,,2013-07-27 16:54:00,
2013-07-27 09:02:00,55.0,54.0,-100.00,SSW,197,0.0,2.0,96,0.00,,,0.00,117.000000,,2013-07-27 17:02:00,
2013-07-27 09:12:00,55.0,54.0,-100.00,SSW,197,0.0,2.0,96,0.00,,,0.00,117.000000,,2013-07-27 17:12:00,
2013-07-27 09:22:00,55.0,54.0,-100.00,SSW,197,0.0,2.0,96,0.00,,,0.00,117.000000,,2013-07-27 17:22:00,
2013-07-27 09:53:00,60.0,56.0,-100.00,WSW,246,3.0,4.0,88,0.00,,,0.00,169.000000,,2013-07-27 17:53:00,
2013-07-27 10:02:00,60.0,56.0,-100.00,WSW,246,3.0,4.0,88,0.00,,,0.00,169.000000,,2013-07-27 18:02:00,
2013-07-27 10:12:00,60.0,56.0,-100.00,WSW,246,3.0,4.0,88,0.00,,,0.00,169.000000,,2013-07-27 18:12:00,
2013-07-27 10:22:00,60.0,56.0,-100.00,WSW,246,3.0,4.0,88,0.00,,,0.00,169.000000,,2013-07-27 18:22:00,
2013-07-27 10:53:00,62.0,56.0,-100.00,West,270,1.0,5.0,81,0.00,,,-99.99,244.000000,,2013-07-27 18:53:00,
2013-07-27 11:02:00,62.0,56.0,-100.00,West,270,1.0,5.0,81,0.00,,,-99.99,244.000000,,2013-07-27 19:02:00,
2013-07-27 11:12:00,62.0,56.0,-100.00,West,270,1.0,5.0,81,0.00,,,-99.99,244.000000,,2013-07-27 19:12:00,
2013-07-27 11:22:00,62.0,56.0,-100.00,West,270,1.0,5.0,81,0.00,,,-99.99,244.000000,,2013-07-27 19:22:00,
2013-07-27 11:53:00,63.0,56.0,-100.00,WSW,242,3.0,6.0,78,0.00,,,0.00,312.000000,,2013-07-27 19:53:00,
2013-07-27 12:02:00,63.0,56.0,-100.00,WSW,242,3.0,6.0,78,0.00,,,0.00,312.000000,,2013-07-27 20:02:00,
2013-07-27 12:12:00,63.0,56.0,-100.00,WSW,242,3.0,6.0,78,0.00,,,0.00,312.000000,,2013-07-27 20:12:00,
2013-07-27 12:22:00,63.0,56.0,-100.00,WSW,242,3.0,6.0,78,0.00,,,0.00,312.000000,,2013-07-27 20:22:00,
2013-07-27 12:52:00,65.0,56.0,-100.00,SW,229,4.0,7.0,72,0.00,,,0.00,543.000000,,2013-07-27 20:52:00,
2013-07-27 13:02:00,65.0,56.0,-100.00,SW,229,4.0,7.0,72,0.00,,,0.00,543.000000,,2013-07-27 21:02:00,
2013-07-27 13:12:00,65.0,56.0,-100.00,SW,229,4.0,7.0,72,0.00,,,0.00,543.000000,,2013-07-27 21:12:00,
2013-07-27 13:22:00,65.0,56.0,-100.00,SW,229,4.0,7.0,72,0.00,,,0.00,543.000000,,2013-07-27 21:22:00,
2013-07-27 13:53:00,68.0,57.0,-100.00,West,259,3.0,6.0,68,0.00,,,0.00,622.000000,,2013-07-27 21:53:00,
2013-07-27 14:02:00,68.0,57.0,-100.00,West,259,3.0,6.0,68,0.00,,,0.00,622.000000,,2013-07-27 22:02:00,
2013-07-27 14:12:00,68.0,57.0,-100.00,West,259,3.0,6.0,68,0.00,,,0.00,622.000000,,2013-07-27 22:12:00,
2013-07-27 14:22:00,68.0,57.0,-100.00,West,259,3.0,6.0,68,0.00,,,0.00,622.000000,,2013-07-27 22:22:00,
2013-07-27 14:53:00,70.0,58.0,-100.00,NW,305,1.0,8.0,65,0.00,,,0.00,694.000000,,2013-07-27 22:53:00,
2013-07-27 15:53:00,71.0,58.0,-100.00,WSW,242,5.0,9.0,63,-99.99,,,0.00,588.000000,,2013-07-27 23:53:00,
2013-07-27 17:53:00,70.0,58.0,-100.00,SW,216,5.0,11.0,65,0.00,,,0.00,573.000000,,2013-07-28 01:53:00,
2013-07-27 18:02:00,70.0,58.0,-100.00,SW,216,5.0,11.0,65,0.00,,,0.00,573.000000,,2013-07-28 02:02:00,
2013-07-27 18:12:00,70.0,58.0,-100.00,SW,216,5.0,11.0,65,0.00,,,0.00,573.000000,,2013-07-28 02:12:00,
2013-07-27 18:22:00,70.0,58.0,-100.00,SW,216,5.0,11.0,65,0.00,,,0.00,573.000000,,2013-07-28 02:22:00,
2013-07-27 18:53:00,69.0,57.0,-100.00,WSW,251,4.0,9.0,65,0.00,,,0.00,466.000000,,2013-07-28 02:53:00,
2013-07-27 19:02:00,69.0,57.0,-100.00,WSW,251,4.0,9.0,65,0.00,,,0.00,466.000000,,2013-07-28 03:02:00,
2013-07-27 19:12:00,69.0,57.0,-100.00,WSW,251,4.0,9.0,65,0.00,,,0.00,466.000000,,2013-07-28 03:12:00,
2013-07-27 19:22:00,69.0,57.0,-100.00,WSW,251,4.0,9.0,65,0.00,,,0.00,466.000000,,2013-07-28 03:22:00,
2013-07-27 19:53:00,68.0,57.0,-100.00,West,263,1.0,8.0,68,-99.99,,,0.00,355.000000,,2013-07-28 03:53:00,
2013-07-27 20:02:00,68.0,57.0,-100.00,West,263,1.0,8.0,68,-99.99,,,0.00,355.000000,,2013-07-28 04:02:00,
2013-07-27 20:12:00,68.0,57.0,-100.00,West,263,1.0,8.0,68,-99.99,,,0.00,355.000000,,2013-07-28 04:12:00,
2013-07-27 20:22:00,68.0,57.0,-100.00,West,263,1.0,8.0,68,-99.99,,,0.00,355.000000,,2013-07-28 04:22:00,
2013-07-27 20:53:00,62.0,54.0,-100.00,WSW,240,5.0,9.0,75,0.00,,,0.00,228.000000,,2013-07-28 04:53:00,
2013-07-27 21:02:00,62.0,54.0,-100.00,WSW,240,5.0,9.0,75,0.00,,,0.00,228.000000,,2013-07-28 05:02:00,
2013-07-27 21:12:00,62.0,54.0,-100.00,WSW,240,5.0,9.0,75,0.00,,,0.00,228.000000,,2013-07-28 05:12:00,
2013-07-27 21:22:00,62.0,54.0,-100.00,WSW,240,5.0,9.0,75,0.00,,,0.00,228.000000,,2013-07-28 05:22:00,
2013-07-27 21:53:00,58.0,54.0,-100.00,WSW,248,1.0,8.0,86,0.00,,,0.00,48.000000,,2013-07-28 05:53:00,
2013-07-27 22:02:00,58.0,54.0,-100.00,WSW,248,1.0,8.0,86,0.00,,,0.00,48.000000,,2013-07-28 06:02:00,
2013-07-27 22:12:00,58.0,54.0,-100.00,WSW,248,1.0,8.0,86,0.00,,,0.00,48.000000,,2013-07-28 06:12:00,
2013-07-27 22:22:00,58.0,54.0,-100.00,WSW,248,1.0,8.0,86,0.00,,,0.00,48.000000,,2013-07-28 06:22:00,
2013-07-27 22:53:00,55.0,52.0,-100.00,SW,235,1.0,5.0,91,0.00,,,0.00,17.000000,,2013-07-28 06:53:00,
2013-07-27 23:02:00,55.0,52.0,-100.00,SW,235,1.0,5.0,91,0.00,,,0.00,17.000000,,2013-07-28 07:02:00,
2013-07-27 23:12:00,55.0,52.0,-100.00,SW,235,1.0,5.0,91,0.00,,,0.00,17.000000,,2013-07-28 07:12:00,
2013-07-27 23:22:00,55.0,52.0,-100.00,SW,235,1.0,5.0,91,0.00,,,0.00,17.000000,,2013-07-28 07:22:00,
2013-07-27 23:53:00,54.0,53.0,-100.00,WSW,239,1.0,4.0,95,0.00,,,0.00,3.000000,,2013-07-28 07:53:00,